Time;durP1;ratioP1;P1;durP2;ratioP2;P2;SDS_P1;SDS_P2;PMS_P1;PMS_P2;Temp;Humidity;BMP_temperature;BMP_pressure;BME280_temperature;BME280_humidity;BME280_pressure;Samples;Min_cycle;Max_cycle;Signal;HPM_P1;HPM_P2
2021/04/24 00:00:20;;;;;;;7.63;3.42;;;7.90;86.60;;;;;;2103328;28;20107;-68
2021/04/24 00:01:22;;;;;;;6.00;3.33;;;7.90;86.70;;;;;;2098009;28;20027;-68
2021/04/24 00:02:23;;;;;;;5.13;3.75;;;7.90;86.70;;;;;;2089147;28;20031;-68
2021/04/24 00:03:24;;;;;;;6.80;3.90;;;7.90;86.70;;;;;;2098332;28;20033;-68
2021/04/24 00:04:26;;;;;;;5.65;4.10;;;7.90;86.30;;;;;;2098663;28;20036;-68
2021/04/24 00:05:35;;;;;;;5.45;3.45;;;7.90;86.20;;;;;;2098046;28;20458;-68
2021/04/24 00:06:36;;;;;;;7.47;4.05;;;7.80;87.40;;;;;;2097411;28;20024;-68
2021/04/24 00:07:36;;;;;;;8.82;4.50;;;7.80;86.40;;;;;;2098657;28;20107;-68
2021/04/24 00:08:37;;;;;;;8.85;3.58;;;7.80;86.60;;;;;;2099023;28;20030;-68
2021/04/24 00:09:39;;;;;;;4.95;3.47;;;7.80;86.80;;;;;;2098828;28;20063;-68
2021/04/24 00:10:42;;;;;;;7.15;3.95;;;7.70;86.80;;;;;;2098691;28;20024;-68
2021/04/24 00:11:42;;;;;;;8.38;4.38;;;7.70;87.00;;;;;;2098544;28;20051;-68
2021/04/24 00:12:43;;;;;;;7.47;3.58;;;7.70;86.80;;;;;;2098270;28;20037;-68
2021/04/24 00:13:44;;;;;;;11.63;4.10;;;7.70;86.90;;;;;;2098798;28;20059;-68
2021/04/24 00:14:45;;;;;;;8.25;4.20;;;7.70;87.20;;;;;;2098777;28;20421;-68
2021/04/24 00:15:46;;;;;;;6.07;3.10;;;7.70;87.40;;;;;;2098812;28;20036;-68
2021/04/24 00:16:46;;;;;;;8.05;4.13;;;7.70;87.20;;;;;;2098558;28;20028;-68
2021/04/24 00:17:47;;;;;;;7.57;4.72;;;7.70;86.80;;;;;;2098579;28;20024;-69
2021/04/24 00:18:48;;;;;;;8.18;3.72;;;7.70;86.70;;;;;;2098692;28;20029;-69
2021/04/24 00:19:49;;;;;;;8.73;3.90;;;7.70;86.90;;;;;;2102514;28;20036;-69
2021/04/24 00:20:49;;;;;;;6.32;3.35;;;7.70;86.70;;;;;;2107219;28;20032;-68
2021/04/24 00:21:50;;;;;;;6.15;3.50;;;7.70;86.50;;;;;;2107021;28;20024;-68
2021/04/24 00:22:51;;;;;;;5.90;3.95;;;7.60;86.60;;;;;;2106429;28;20096;-69
2021/04/24 00:23:52;;;;;;;7.32;3.75;;;7.60;86.70;;;;;;2107297;28;20024;-68
2021/04/24 00:24:53;;;;;;;9.20;3.38;;;7.60;86.60;;;;;;2105619;28;20113;-68
2021/04/24 00:25:53;;;;;;;8.88;3.80;;;7.60;87.10;;;;;;2098850;28;20028;-68
2021/04/24 00:26:54;;;;;;;10.32;3.60;;;7.60;87.10;;;;;;2098545;28;20028;-68
2021/04/24 00:27:54;;;;;;;5.88;3.53;;;7.60;86.80;;;;;;2098668;28;20048;-68
2021/04/24 00:28:55;;;;;;;7.55;3.33;;;7.60;87.30;;;;;;2099087;28;20028;-68
2021/04/24 00:29:55;;;;;;;9.10;3.38;;;7.60;87.40;;;;;;2098623;28;20016;-68
2021/04/24 00:30:57;;;;;;;9.60;3.97;;;7.50;87.20;;;;;;2098405;28;20021;-68
2021/04/24 00:31:57;;;;;;;9.93;3.67;;;7.50;87.30;;;;;;2098652;28;20033;-68
2021/04/24 00:32:58;;;;;;;6.65;3.63;;;7.60;87.40;;;;;;2097958;28;20028;-68
2021/04/24 00:33:58;;;;;;;6.97;3.35;;;7.50;87.30;;;;;;2098374;28;20035;-69
2021/04/24 00:34:59;;;;;;;6.47;3.67;;;7.50;87.20;;;;;;2098677;28;20360;-69
2021/04/24 00:36:00;;;;;;;8.27;3.70;;;7.50;87.20;;;;;;2097725;28;20020;-68
2021/04/24 00:37:00;;;;;;;7.25;4.00;;;7.50;87.50;;;;;;2098285;28;20122;-68
2021/04/24 00:38:01;;;;;;;8.57;3.83;;;7.50;85.20;;;;;;2098357;28;20447;-69
2021/04/24 00:39:03;;;;;;;7.80;3.55;;;7.50;86.00;;;;;;2098596;28;20024;-68
2021/04/24 00:40:06;;;;;;;10.00;3.95;;;7.50;86.80;;;;;;2098280;28;20033;-68
2021/04/24 00:41:07;;;;;;;8.60;3.78;;;7.50;87.50;;;;;;2104683;28;20035;-68
2021/04/24 00:42:07;;;;;;;6.32;3.33;;;7.50;87.40;;;;;;2106577;28;20024;-69
2021/04/24 00:43:08;;;;;;;5.93;3.72;;;7.50;87.30;;;;;;2106834;28;20464;-68
2021/04/24 00:44:09;;;;;;;5.60;3.50;;;7.50;88.20;;;;;;2106986;28;20024;-68
2021/04/24 00:45:11;;;;;;;8.80;3.88;;;7.50;87.50;;;;;;2106417;28;20301;-68
2021/04/24 00:46:13;;;;;;;5.82;3.70;;;7.50;86.70;;;;;;2098152;28;20016;-68
2021/04/24 00:47:15;;;;;;;7.53;4.00;;;7.50;87.10;;;;;;2097956;28;20031;-68
2021/04/24 00:48:16;;;;;;;6.35;3.20;;;7.40;86.60;;;;;;2098501;28;20028;-68
2021/04/24 00:49:17;;;;;;;4.95;3.45;;;7.40;85.70;;;;;;2098520;28;20107;-69
2021/04/24 00:50:24;;;;;;;6.00;3.25;;;7.40;86.40;;;;;;2098549;28;20056;-69
2021/04/24 00:51:24;;;;;;;4.93;3.55;;;7.40;86.90;;;;;;2098840;28;20028;-69
2021/04/24 00:52:25;;;;;;;7.47;3.20;;;7.40;87.10;;;;;;2095599;28;20029;-69
2021/04/24 00:53:25;;;;;;;4.75;3.60;;;7.30;87.20;;;;;;2097270;28;20024;-68
2021/04/24 00:54:26;;;;;;;4.75;3.00;;;7.30;87.50;;;;;;2097228;28;20100;-68
2021/04/24 00:55:26;;;;;;;5.28;3.42;;;7.30;86.00;;;;;;2098760;28;20024;-68
2021/04/24 00:56:27;;;;;;;5.07;3.40;;;7.30;87.00;;;;;;2096455;28;20036;-68
2021/04/24 00:57:30;;;;;;;5.28;3.15;;;7.30;85.10;;;;;;2103831;28;20063;-68
2021/04/24 00:58:33;;;;;;;6.28;3.40;;;7.30;86.00;;;;;;2103581;28;20032;-69
2021/04/24 00:59:36;;;;;;;4.63;3.28;;;7.30;85.20;;;;;;2097123;28;20032;-69
2021/04/24 01:00:37;;;;;;;5.28;3.13;;;7.30;85.40;;;;;;2097153;28;20029;-68
2021/04/24 01:01:38;;;;;;;6.68;3.30;;;7.30;86.00;;;;;;2096380;28;20567;-68
2021/04/24 01:02:39;;;;;;;4.82;3.28;;;7.20;84.20;;;;;;2096007;28;20613;-69
2021/04/24 01:03:39;;;;;;;5.85;2.95;;;7.30;86.20;;;;;;2101365;28;20093;-69
2021/04/24 01:04:40;;;;;;;4.88;3.90;;;7.20;87.00;;;;;;2105759;28;20596;-68
2021/04/24 01:05:42;;;;;;;8.38;3.42;;;7.20;86.90;;;;;;2105021;28;20028;-68
2021/04/24 01:06:42;;;;;;;6.95;3.88;;;7.20;86.50;;;;;;2105742;28;20611;-68
2021/04/24 01:07:43;;;;;;;5.93;3.78;;;7.20;85.80;;;;;;2105370;28;20052;-68
2021/04/24 01:08:44;;;;;;;4.15;3.00;;;7.10;85.70;;;;;;2104537;28;20031;-68
2021/04/24 01:09:44;;;;;;;7.43;3.58;;;7.10;86.40;;;;;;2096676;28;20435;-68
2021/04/24 01:10:45;;;;;;;8.55;3.75;;;7.10;86.10;;;;;;2097133;28;20024;-68
2021/04/24 01:11:46;;;;;;;6.10;3.58;;;7.10;87.60;;;;;;2097295;28;20399;-68
2021/04/24 01:12:48;;;;;;;4.55;3.20;;;7.10;86.50;;;;;;2096457;28;20043;-68
2021/04/24 01:13:48;;;;;;;5.30;3.60;;;7.10;86.20;;;;;;2096842;28;20037;-68
2021/04/24 01:14:49;;;;;;;3.80;3.20;;;7.10;87.30;;;;;;2096878;28;20527;-68
2021/04/24 01:15:50;;;;;;;3.38;2.90;;;7.00;86.10;;;;;;2096892;28;20059;-68
2021/04/24 01:16:51;;;;;;;5.25;3.60;;;7.00;86.40;;;;;;2096853;28;20138;-68
2021/04/24 01:17:51;;;;;;;4.68;3.50;;;7.00;87.10;;;;;;2096995;28;20111;-68
2021/04/24 01:18:52;;;;;;;10.93;3.80;;;7.00;85.60;;;;;;2096955;28;20119;-68
2021/04/24 01:19:53;;;;;;;8.10;3.70;;;7.00;87.00;;;;;;2096992;28;20031;-68
2021/04/24 01:20:57;;;;;;;5.60;3.97;;;6.90;86.60;;;;;;2097034;28;20024;-68
2021/04/24 01:22:08;;;;;;;5.35;3.35;;;6.90;86.30;;;;;;2096946;28;20467;-68
2021/04/24 01:23:10;;;;;;;7.22;3.53;;;6.90;88.10;;;;;;2097003;28;20028;-68
2021/04/24 01:24:10;;;;;;;6.32;3.60;;;6.90;87.10;;;;;;2096517;28;21821;-68
2021/04/24 01:25:15;;;;;;;8.18;3.28;;;6.80;88.20;;;;;;2096874;28;20035;-68
2021/04/24 01:26:16;;;;;;;5.57;3.20;;;6.80;87.90;;;;;;2096570;28;20013;-68
2021/04/24 01:27:16;;;;;;;7.00;3.40;;;6.80;86.90;;;;;;2096917;28;20020;-69
2021/04/24 01:28:17;;;;;;;3.45;3.05;;;6.80;87.70;;;;;;2099784;28;20556;-68
2021/04/24 01:29:17;;;;;;;9.73;4.00;;;6.80;87.10;;;;;;2096096;28;20074;-68
2021/04/24 01:30:22;;;;;;;7.47;3.55;;;6.80;87.80;;;;;;2101740;28;20103;-68
2021/04/24 01:31:23;;;;;;;7.60;3.22;;;6.80;88.10;;;;;;2104894;28;20020;-68
2021/04/24 01:32:24;;;;;;;10.80;3.53;;;6.70;87.90;;;;;;2104593;28;20036;-68
2021/04/24 01:33:25;;;;;;;7.65;3.17;;;6.70;88.70;;;;;;2104918;28;20059;-69
2021/04/24 01:34:28;;;;;;;7.63;2.92;;;6.70;88.30;;;;;;2104515;28;20123;-69
2021/04/24 01:35:31;;;;;;;6.22;2.78;;;6.70;86.70;;;;;;2105222;28;20440;-68
2021/04/24 01:36:32;;;;;;;10.70;3.92;;;6.70;87.60;;;;;;2105041;28;20036;-68
2021/04/24 01:37:33;;;;;;;7.18;3.40;;;6.70;88.60;;;;;;2105092;28;20454;-68
2021/04/24 01:38:34;;;;;;;5.60;3.63;;;6.60;89.00;;;;;;2105455;28;20032;-68
2021/04/24 01:39:35;;;;;;;6.50;3.10;;;6.60;88.90;;;;;;2105402;28;20463;-68
2021/04/24 01:40:36;;;;;;;6.50;3.35;;;6.60;89.30;;;;;;2104805;28;20078;-68
2021/04/24 01:41:36;;;;;;;6.95;3.00;;;6.60;89.60;;;;;;2094201;28;20082;-68
2021/04/24 01:42:37;;;;;;;5.53;3.22;;;6.60;90.00;;;;;;2090205;28;20037;-68
2021/04/24 01:43:38;;;;;;;5.90;3.55;;;6.50;89.80;;;;;;2096987;28;20043;-68
2021/04/24 01:44:38;;;;;;;9.35;4.18;;;6.60;89.00;;;;;;2096419;28;20052;-68
2021/04/24 01:45:39;;;;;;;4.50;2.75;;;6.50;89.70;;;;;;2099219;28;20416;-68
2021/04/24 01:46:40;;;;;;;5.60;3.53;;;6.50;88.30;;;;;;2104834;28;20775;-68
2021/04/24 01:47:42;;;;;;;7.00;3.40;;;6.50;89.00;;;;;;2105280;28;20467;-68
2021/04/24 01:48:43;;;;;;;6.57;3.60;;;6.50;90.10;;;;;;2104832;28;20046;-68
2021/04/24 01:49:43;;;;;;;5.47;2.97;;;6.50;90.00;;;;;;2105349;28;20479;-68
2021/04/24 01:50:46;;;;;;;8.02;3.53;;;6.40;90.00;;;;;;2095507;28;20032;-68
2021/04/24 01:51:47;;;;;;;7.97;3.70;;;6.50;89.90;;;;;;2088558;28;20033;-68
2021/04/24 01:52:50;;;;;;;5.50;3.10;;;6.40;89.90;;;;;;2095830;28;20029;-68
2021/04/24 01:53:54;;;;;;;5.07;3.10;;;6.40;90.20;;;;;;2097030;28;20367;-69
2021/04/24 01:54:54;;;;;;;7.30;3.20;;;6.50;90.50;;;;;;2096473;28;20089;-69
2021/04/24 01:55:55;;;;;;;6.70;4.35;;;6.40;90.70;;;;;;2098226;28;20411;-68
2021/04/24 01:56:59;;;;;;;7.82;3.30;;;6.40;91.10;;;;;;2095697;28;20041;-68
2021/04/24 01:58:03;;;;;;;4.53;3.08;;;6.40;91.50;;;;;;2096579;28;20368;-68
2021/04/24 01:59:04;;;;;;;4.15;2.72;;;6.40;91.40;;;;;;2103080;28;20023;-68
2021/04/24 02:00:17;;;;;;;7.82;3.80;;;6.40;91.30;;;;;;2105069;28;20052;-68
2021/04/24 02:01:18;;;;;;;7.75;3.47;;;6.40;91.50;;;;;;2105884;28;20056;-68
2021/04/24 02:02:19;;;;;;;9.00;3.75;;;6.30;91.60;;;;;;2105056;28;20024;-68
2021/04/24 02:03:19;;;;;;;4.40;3.05;;;6.30;91.40;;;;;;2106255;28;20099;-68
2021/04/24 02:04:22;;;;;;;7.88;3.70;;;6.30;91.10;;;;;;2106412;28;20170;-68
2021/04/24 02:05:24;;;;;;;7.00;3.58;;;6.30;91.30;;;;;;2106056;28;20016;-68
2021/04/24 02:06:24;;;;;;;7.00;3.72;;;6.30;91.90;;;;;;2105769;28;20044;-68
2021/04/24 02:07:25;;;;;;;9.07;3.92;;;6.30;91.50;;;;;;2105334;28;20031;-68
2021/04/24 02:08:30;;;;;;;5.00;3.75;;;6.30;92.10;;;;;;2106634;28;20020;-68
2021/04/24 02:09:31;;;;;;;5.72;3.63;;;6.30;92.60;;;;;;2106457;28;20039;-68
2021/04/24 02:10:32;;;;;;;7.97;3.58;;;6.20;92.60;;;;;;2099516;28;20033;-68
2021/04/24 02:11:33;;;;;;;3.63;2.83;;;6.30;92.10;;;;;;2097721;28;20085;-68
2021/04/24 02:12:33;;;;;;;5.68;3.78;;;6.30;91.20;;;;;;2097427;28;20082;-68
2021/04/24 02:13:43;;;;;;;4.47;3.33;;;6.20;91.80;;;;;;2097968;28;20151;-68
2021/04/24 02:14:49;;;;;;;9.20;3.58;;;6.20;92.30;;;;;;2097449;28;20160;-68
2021/04/24 02:15:50;;;;;;;9.73;4.28;;;6.20;92.80;;;;;;2097363;28;20046;-68
2021/04/24 02:16:50;;;;;;;6.28;3.70;;;6.20;92.90;;;;;;2098034;28;20025;-68
2021/04/24 02:17:51;;;;;;;7.22;3.80;;;6.20;92.10;;;;;;2097050;28;20068;-68
2021/04/24 02:18:51;;;;;;;6.07;3.50;;;6.20;92.10;;;;;;2097331;28;20017;-68
2021/04/24 02:19:53;;;;;;;11.35;4.03;;;6.20;92.30;;;;;;2097825;28;20443;-68
2021/04/24 02:20:54;;;;;;;8.13;3.35;;;6.20;92.70;;;;;;2098013;28;20137;-68
2021/04/24 02:21:54;;;;;;;6.18;3.40;;;6.20;92.20;;;;;;2097387;28;20035;-68
2021/04/24 02:22:55;;;;;;;7.07;3.17;;;6.10;91.50;;;;;;2099410;28;20056;-68
2021/04/24 02:23:56;;;;;;;7.07;3.25;;;6.10;90.90;;;;;;2106418;28;20086;-68
2021/04/24 02:25:00;;;;;;;5.72;3.15;;;6.10;90.90;;;;;;2099006;28;20036;-68
2021/04/24 02:26:01;;;;;;;4.95;3.63;;;6.10;90.90;;;;;;2099174;28;20074;-68
2021/04/24 02:27:04;;;;;;;6.07;3.63;;;6.10;91.40;;;;;;2106299;28;20032;-68
2021/04/24 02:28:06;;;;;;;6.60;3.70;;;6.10;91.10;;;;;;2106121;28;20024;-69
2021/04/24 02:29:06;;;;;;;6.57;3.47;;;6.10;91.40;;;;;;2106374;28;20609;-69
2021/04/24 02:30:11;;;;;;;6.00;3.72;;;6.10;91.00;;;;;;2106256;28;20756;-68
2021/04/24 02:31:11;;;;;;;6.53;3.88;;;6.10;91.20;;;;;;2106199;28;20028;-68
2021/04/24 02:32:13;;;;;;;6.53;3.65;;;6.10;91.40;;;;;;2105807;28;20024;-68
2021/04/24 02:33:14;;;;;;;6.25;3.28;;;6.00;91.30;;;;;;2106061;28;20016;-68
2021/04/24 02:34:15;;;;;;;5.32;3.30;;;6.00;91.30;;;;;;2106037;28;20039;-68
2021/04/24 02:35:22;;;;;;;4.50;3.08;;;6.00;91.50;;;;;;2106403;28;20012;-68
2021/04/24 02:36:22;;;;;;;4.88;3.40;;;6.00;91.60;;;;;;2106183;28;20025;-69
2021/04/24 02:37:23;;;;;;;6.85;3.72;;;6.00;91.30;;;;;;2106014;28;20032;-68
2021/04/24 02:38:31;;;;;;;3.38;3.08;;;6.00;91.40;;;;;;2105902;28;20024;-68
2021/04/24 02:39:38;;;;;;;6.07;3.47;;;6.00;91.40;;;;;;2103022;28;20020;-68
2021/04/24 02:40:38;;;;;;;5.53;3.40;;;5.90;91.60;;;;;;2105949;28;20036;-68
2021/04/24 02:41:39;;;;;;;6.95;3.70;;;5.90;91.00;;;;;;2106354;28;20107;-68
2021/04/24 02:42:39;;;;;;;4.70;3.17;;;5.90;90.90;;;;;;2103393;28;20047;-68
2021/04/24 02:43:40;;;;;;;10.95;3.95;;;5.90;91.00;;;;;;2097878;28;20123;-68
2021/04/24 02:44:41;;;;;;;7.22;2.97;;;5.90;91.40;;;;;;2097553;28;20016;-68
2021/04/24 02:45:43;;;;;;;6.72;3.08;;;5.80;91.40;;;;;;2097672;28;20052;-68
2021/04/24 02:46:43;;;;;;;6.40;3.35;;;5.80;91.80;;;;;;2096993;28;20387;-68
2021/04/24 02:47:44;;;;;;;4.72;3.13;;;5.80;90.90;;;;;;2096780;28;20114;-68
2021/04/24 02:48:45;;;;;;;6.88;3.55;;;5.80;90.90;;;;;;2097339;28;20033;-68
2021/04/24 02:49:46;;;;;;;6.47;3.65;;;5.80;91.30;;;;;;2097753;28;20079;-68
2021/04/24 02:50:48;;;;;;;8.48;3.67;;;5.80;92.00;;;;;;2097660;28;20024;-68
2021/04/24 02:51:48;;;;;;;5.68;4.13;;;5.70;91.70;;;;;;2097100;28;20037;-68
2021/04/24 02:52:49;;;;;;;4.25;3.35;;;5.70;92.30;;;;;;2104864;28;20088;-68
2021/04/24 02:53:49;;;;;;;6.28;3.70;;;5.70;91.60;;;;;;2100315;28;20414;-68
2021/04/24 02:54:50;;;;;;;7.68;3.47;;;5.70;92.00;;;;;;2098193;28;20103;-68
2021/04/24 02:55:50;;;;;;;7.43;4.10;;;5.70;91.70;;;;;;2099267;28;20403;-68
2021/04/24 02:56:51;;;;;;;6.35;3.72;;;5.70;92.30;;;;;;2098980;28;20454;-68
2021/04/24 02:57:52;;;;;;;7.63;3.95;;;5.70;92.30;;;;;;2106273;28;20060;-68
2021/04/24 02:58:53;;;;;;;6.40;4.07;;;5.60;92.40;;;;;;2105875;28;20060;-68
2021/04/24 02:59:53;;;;;;;6.45;3.65;;;5.60;92.80;;;;;;2106375;28;20059;-68
2021/04/24 03:00:54;;;;;;;4.28;3.88;;;5.60;92.20;;;;;;2104907;28;20449;-68
2021/04/24 03:01:55;;;;;;;5.43;3.55;;;5.60;91.80;;;;;;2104627;28;20022;-68
2021/04/24 03:03:03;;;;;;;5.90;4.18;;;5.50;92.00;;;;;;2104493;28;20084;-68
2021/04/24 03:04:04;;;;;;;8.10;3.70;;;5.50;92.90;;;;;;2105062;28;20016;-68
2021/04/24 03:05:13;;;;;;;8.38;3.90;;;5.50;92.60;;;;;;2104324;28;20027;-69
2021/04/24 03:06:14;;;;;;;8.60;4.20;;;5.50;93.30;;;;;;2099833;28;20489;-68
2021/04/24 03:07:15;;;;;;;8.00;3.70;;;5.50;93.40;;;;;;2096720;28;20371;-68
2021/04/24 03:08:15;;;;;;;5.57;3.50;;;5.40;92.90;;;;;;2097001;28;20134;-68
2021/04/24 03:09:16;;;;;;;7.35;4.00;;;5.40;93.30;;;;;;2096451;28;20028;-68
2021/04/24 03:10:17;;;;;;;4.55;3.95;;;5.40;93.00;;;;;;2096445;28;20067;-68
2021/04/24 03:11:18;;;;;;;7.63;4.15;;;5.40;93.20;;;;;;2094720;28;20032;-68
2021/04/24 03:12:19;;;;;;;5.90;3.80;;;5.40;93.10;;;;;;2095192;28;20100;-69
2021/04/24 03:13:19;;;;;;;7.10;4.32;;;5.40;93.10;;;;;;2096197;28;20043;-68
2021/04/24 03:14:20;;;;;;;6.90;3.55;;;5.40;93.40;;;;;;2096467;28;20137;-68
2021/04/24 03:15:21;;;;;;;8.38;4.22;;;5.30;93.50;;;;;;2102819;28;20082;-68
2021/04/24 03:16:22;;;;;;;7.50;4.32;;;5.30;93.70;;;;;;2104841;28;20043;-68
2021/04/24 03:17:23;;;;;;;7.63;4.25;;;5.30;93.80;;;;;;2104499;28;20039;-68
2021/04/24 03:18:23;;;;;;;5.10;3.85;;;5.30;93.60;;;;;;2104823;28;20024;-69
2021/04/24 03:19:24;;;;;;;5.72;3.65;;;5.30;93.50;;;;;;2104462;28;20025;-68
2021/04/24 03:20:25;;;;;;;6.03;3.85;;;5.30;93.70;;;;;;2101258;28;20047;-68
2021/04/24 03:21:26;;;;;;;5.40;3.53;;;5.30;93.70;;;;;;2100259;28;20032;-68
2021/04/24 03:22:27;;;;;;;3.92;3.33;;;5.20;93.10;;;;;;2100377;28;20459;-69
2021/04/24 03:23:27;;;;;;;6.95;4.00;;;5.20;93.50;;;;;;2096007;28;20391;-68
2021/04/24 03:24:28;;;;;;;6.25;4.18;;;5.20;93.30;;;;;;2095978;28;20028;-68
2021/04/24 03:25:29;;;;;;;4.82;3.97;;;5.20;93.80;;;;;;2096434;28;20111;-68
2021/04/24 03:26:30;;;;;;;6.60;4.07;;;5.20;93.60;;;;;;2096017;28;20036;-68
2021/04/24 03:27:31;;;;;;;5.25;3.60;;;5.20;93.80;;;;;;2096188;28;20054;-68
2021/04/24 03:28:32;;;;;;;7.57;4.10;;;5.20;93.80;;;;;;2096381;28;20047;-68
2021/04/24 03:29:32;;;;;;;6.20;4.00;;;5.10;94.40;;;;;;2095651;28;20142;-68
2021/04/24 03:30:33;;;;;;;5.88;3.42;;;5.10;94.40;;;;;;2095439;28;20025;-68
2021/04/24 03:31:34;;;;;;;6.22;4.18;;;5.10;93.90;;;;;;2103367;28;20103;-68
2021/04/24 03:32:35;;;;;;;8.50;4.57;;;5.10;94.00;;;;;;2103959;28;20103;-68
2021/04/24 03:33:36;;;;;;;8.15;4.13;;;5.10;94.40;;;;;;2104642;28;20489;-68
2021/04/24 03:34:36;;;;;;;6.47;4.10;;;5.10;93.90;;;;;;2104414;28;20036;-68
2021/04/24 03:35:37;;;;;;;5.63;4.28;;;5.10;94.40;;;;;;2104878;28;20115;-68
2021/04/24 03:36:37;;;;;;;7.05;3.83;;;5.10;94.40;;;;;;2104562;28;20470;-68
2021/04/24 03:37:39;;;;;;;8.35;4.32;;;5.10;94.30;;;;;;2100503;28;20047;-68
2021/04/24 03:38:40;;;;;;;3.88;3.47;;;5.00;94.50;;;;;;2096318;28;20027;-68
2021/04/24 03:39:40;;;;;;;6.85;4.00;;;5.00;94.30;;;;;;2096025;28;20029;-68
2021/04/24 03:40:41;;;;;;;6.10;3.63;;;5.00;93.60;;;;;;2096345;28;20016;-68
2021/04/24 03:41:41;;;;;;;6.20;3.67;;;5.00;94.00;;;;;;2094451;28;20079;-68
2021/04/24 03:42:42;;;;;;;5.68;3.90;;;5.00;94.20;;;;;;2096499;28;20111;-68
2021/04/24 03:43:42;;;;;;;6.20;3.95;;;5.00;94.10;;;;;;2103009;28;20081;-68
2021/04/24 03:44:43;;;;;;;8.10;4.35;;;4.90;94.90;;;;;;2103014;28;20406;-68
2021/04/24 03:45:44;;;;;;;6.88;3.65;;;5.00;95.20;;;;;;2101024;28;20046;-68
2021/04/24 03:46:45;;;;;;;7.47;4.40;;;4.90;95.20;;;;;;2096187;28;20032;-68
2021/04/24 03:47:47;;;;;;;6.25;4.13;;;4.90;95.50;;;;;;2096279;28;20025;-68
2021/04/24 03:48:48;;;;;;;3.90;3.40;;;4.90;95.20;;;;;;2095982;28;20082;-68
2021/04/24 03:49:48;;;;;;;5.57;3.88;;;4.90;94.90;;;;;;2095957;28;20051;-68
2021/04/24 03:50:49;;;;;;;7.80;3.88;;;4.90;94.90;;;;;;2096077;28;20085;-68
2021/04/24 03:51:50;;;;;;;5.65;4.10;;;4.90;94.70;;;;;;2092129;28;20044;-68
2021/04/24 03:52:51;;;;;;;6.82;3.53;;;4.90;95.10;;;;;;2096147;28;20032;-68
2021/04/24 03:53:52;;;;;;;6.65;4.43;;;4.90;94.70;;;;;;2101136;28;20036;-68
2021/04/24 03:54:52;;;;;;;5.97;4.10;;;4.80;95.30;;;;;;2104648;28;20448;-68
2021/04/24 03:55:53;;;;;;;6.95;4.60;;;4.80;95.20;;;;;;2096932;28;20108;-68
2021/04/24 03:56:53;;;;;;;6.55;4.63;;;4.80;95.60;;;;;;2096178;28;20021;-68
2021/04/24 03:57:55;;;;;;;11.40;4.50;;;4.80;95.80;;;;;;2096039;28;20024;-68
2021/04/24 03:58:55;;;;;;;6.65;3.60;;;4.80;95.50;;;;;;2096403;28;20040;-68
2021/04/24 03:59:57;;;;;;;6.13;4.20;;;4.80;95.30;;;;;;2095509;28;20060;-68
2021/04/24 04:00:57;;;;;;;6.22;3.55;;;4.80;95.40;;;;;;2096346;28;20032;-68
2021/04/24 04:01:58;;;;;;;7.30;4.13;;;4.80;94.90;;;;;;2095947;28;20024;-68
2021/04/24 04:03:05;;;;;;;11.30;4.30;;;4.70;95.30;;;;;;2095740;28;20025;-68
2021/04/24 04:04:05;;;;;;;6.35;3.92;;;4.80;96.00;;;;;;2095995;28;20020;-68
2021/04/24 04:05:06;;;;;;;6.35;4.57;;;4.70;95.90;;;;;;2095669;28;20029;-68
2021/04/24 04:06:07;;;;;;;6.53;3.92;;;4.70;96.20;;;;;;2095161;28;20464;-68
2021/04/24 04:07:07;;;;;;;5.45;3.60;;;4.70;96.20;;;;;;2101622;28;20532;-68
2021/04/24 04:08:10;;;;;;;8.65;5.30;;;4.70;95.60;;;;;;2103553;28;20492;-68
2021/04/24 04:09:11;;;;;;;7.22;4.45;;;4.70;96.70;;;;;;2104650;28;20020;-68
2021/04/24 04:10:16;;;;;;;7.07;4.43;;;4.70;96.40;;;;;;2099462;28;20032;-68
2021/04/24 04:11:16;;;;;;;7.78;5.20;;;4.70;96.10;;;;;;2095438;28;20488;-68
2021/04/24 04:12:17;;;;;;;5.22;4.10;;;4.70;96.40;;;;;;2094940;28;20408;-68
2021/04/24 04:13:18;;;;;;;8.32;5.22;;;4.70;95.70;;;;;;2095925;28;20476;-68
2021/04/24 04:14:18;;;;;;;7.53;5.22;;;4.70;96.70;;;;;;2096118;28;20025;-68
2021/04/24 04:15:20;;;;;;;5.45;3.88;;;4.70;97.00;;;;;;2095684;28;20021;-68
2021/04/24 04:16:21;;;;;;;8.02;4.10;;;4.70;96.70;;;;;;2096065;28;20522;-68
2021/04/24 04:17:21;;;;;;;5.68;4.15;;;4.70;95.80;;;;;;2095353;28;20042;-68
2021/04/24 04:18:22;;;;;;;6.60;4.25;;;4.60;95.80;;;;;;2095255;28;20028;-68
2021/04/24 04:19:22;;;;;;;6.93;4.10;;;4.70;96.00;;;;;;2096279;28;20383;-68
2021/04/24 04:20:23;;;;;;;7.15;4.65;;;4.70;96.20;;;;;;2096091;28;20379;-68
2021/04/24 04:21:24;;;;;;;8.80;5.45;;;4.60;96.90;;;;;;2095868;28;20020;-68
2021/04/24 04:22:25;;;;;;;13.43;4.60;;;4.60;97.20;;;;;;2095558;28;20017;-68
2021/04/24 04:23:26;;;;;;;6.05;3.90;;;4.60;97.00;;;;;;2096145;28;20029;-68
2021/04/24 04:24:26;;;;;;;6.38;4.32;;;4.60;96.60;;;;;;2097950;28;20031;-69
2021/04/24 04:25:27;;;;;;;7.15;4.88;;;4.60;96.70;;;;;;2103821;28;20440;-68
2021/04/24 04:26:28;;;;;;;7.13;4.82;;;4.60;96.80;;;;;;2103636;28;20035;-68
2021/04/24 04:27:28;;;;;;;8.93;4.32;;;4.60;96.60;;;;;;2105249;28;20035;-68
2021/04/24 04:28:29;;;;;;;8.65;5.00;;;4.60;96.60;;;;;;2105589;28;20108;-68
2021/04/24 04:29:29;;;;;;;7.55;5.10;;;4.70;97.80;;;;;;2105781;28;20032;-68
2021/04/24 04:30:33;;;;;;;8.95;5.05;;;4.60;97.50;;;;;;2105708;28;20549;-68
2021/04/24 04:31:34;;;;;;;6.68;4.70;;;4.60;97.40;;;;;;2105949;28;20472;-68
2021/04/24 04:32:34;;;;;;;10.05;5.38;;;4.60;97.50;;;;;;2105334;28;20364;-68
2021/04/24 04:33:35;;;;;;;11.65;5.13;;;4.60;97.30;;;;;;2105991;28;20039;-68
2021/04/24 04:34:36;;;;;;;8.52;4.97;;;4.60;97.20;;;;;;2105756;28;20031;-68
2021/04/24 04:35:38;;;;;;;6.43;4.50;;;4.60;97.70;;;;;;2100784;28;20109;-68
2021/04/24 04:36:38;;;;;;;7.82;5.40;;;4.60;97.10;;;;;;2096579;28;20028;-68
2021/04/24 04:37:39;;;;;;;8.25;4.10;;;4.60;97.60;;;;;;2096524;28;20021;-68
2021/04/24 04:38:40;;;;;;;9.70;5.70;;;4.70;97.10;;;;;;2097507;28;20029;-68
2021/04/24 04:39:41;;;;;;;9.43;5.85;;;4.60;97.10;;;;;;2097097;28;20722;-68
2021/04/24 04:40:43;;;;;;;5.75;4.70;;;4.70;97.70;;;;;;2097612;28;20468;-68
2021/04/24 04:41:43;;;;;;;10.57;5.13;;;4.70;97.20;;;;;;2097569;28;20540;-68
2021/04/24 04:42:44;;;;;;;9.60;5.35;;;4.70;97.70;;;;;;2096800;28;20499;-68
2021/04/24 04:43:45;;;;;;;8.18;5.53;;;4.70;98.00;;;;;;2097255;28;20731;-68
2021/04/24 04:44:45;;;;;;;7.93;4.90;;;4.70;98.40;;;;;;2097759;28;20372;-68
2021/04/24 04:45:46;;;;;;;12.05;5.43;;;4.70;98.20;;;;;;2097264;28;20078;-68
2021/04/24 04:46:47;;;;;;;8.68;5.30;;;4.70;98.10;;;;;;2097498;28;20498;-68
2021/04/24 04:47:48;;;;;;;7.38;5.00;;;4.70;98.40;;;;;;2096467;28;20071;-68
2021/04/24 04:48:48;;;;;;;8.35;5.13;;;4.70;98.20;;;;;;2096876;28;20374;-68
2021/04/24 04:49:49;;;;;;;8.10;5.65;;;4.70;98.40;;;;;;2097233;28;20028;-68
2021/04/24 04:50:50;;;;;;;13.05;6.40;;;4.70;98.40;;;;;;2092019;28;20101;-68
2021/04/24 04:51:51;;;;;;;10.02;6.28;;;4.70;98.70;;;;;;2096922;28;20032;-68
2021/04/24 04:52:51;;;;;;;7.68;5.10;;;4.70;99.00;;;;;;2104525;28;20050;-68
2021/04/24 04:53:52;;;;;;;12.60;6.32;;;4.70;98.80;;;;;;2097154;28;20119;-68
2021/04/24 04:54:52;;;;;;;9.57;5.53;;;4.80;99.00;;;;;;2098667;28;20033;-68
2021/04/24 04:55:53;;;;;;;7.93;6.43;;;4.80;99.30;;;;;;2098799;28;20032;-68
2021/04/24 04:56:53;;;;;;;9.45;5.93;;;4.80;99.50;;;;;;2097312;28;20043;-68
2021/04/24 04:57:55;;;;;;;8.05;5.78;;;4.80;99.60;;;;;;2097355;28;20404;-68
2021/04/24 04:58:55;;;;;;;11.00;5.97;;;4.80;99.80;;;;;;2097476;28;20062;-68
2021/04/24 04:59:56;;;;;;;10.15;5.82;;;4.80;99.90;;;;;;2096752;28;20067;-68
2021/04/24 05:00:56;;;;;;;12.95;5.80;;;4.80;99.90;;;;;;2097392;28;20471;-68
2021/04/24 05:01:58;;;;;;;11.25;5.70;;;4.80;99.90;;;;;;2097307;28;20056;-68
2021/04/24 05:02:58;;;;;;;9.43;6.13;;;4.80;99.90;;;;;;2097077;28;20496;-68
2021/04/24 05:03:59;;;;;;;10.45;6.53;;;4.80;99.90;;;;;;2096896;28;20393;-68
2021/04/24 05:05:00;;;;;;;10.00;5.90;;;4.90;99.90;;;;;;2098486;28;20360;-68
2021/04/24 05:06:00;;;;;;;7.97;6.20;;;4.90;99.90;;;;;;2104513;28;20102;-68
2021/04/24 05:07:02;;;;;;;10.30;5.55;;;4.90;99.90;;;;;;2100690;28;20017;-68
2021/04/24 05:08:03;;;;;;;10.05;5.85;;;4.90;99.90;;;;;;2096852;28;20464;-68
2021/04/24 05:09:04;;;;;;;13.10;7.07;;;4.90;99.90;;;;;;2096593;28;20373;-68
2021/04/24 05:10:05;;;;;;;7.20;6.38;;;4.90;99.90;;;;;;2087851;28;20036;-68
2021/04/24 05:11:07;;;;;;;7.60;5.82;;;5.00;99.90;;;;;;2088796;28;20049;-68
2021/04/24 05:12:08;;;;;;;8.30;5.68;;;5.00;99.90;;;;;;2093996;28;20032;-68
2021/04/24 05:13:08;;;;;;;9.52;5.80;;;5.00;99.90;;;;;;2088292;28;20519;-67
2021/04/24 05:14:09;;;;;;;8.13;6.00;;;5.00;99.90;;;;;;2088181;28;20036;-68
2021/04/24 05:15:11;;;;;;;8.77;6.50;;;5.00;99.90;;;;;;2097734;28;20476;-68
2021/04/24 05:16:11;;;;;;;12.00;6.10;;;5.00;99.90;;;;;;2104937;28;20016;-68
2021/04/24 05:17:12;;;;;;;12.13;6.25;;;5.10;99.90;;;;;;2104860;28;20042;-68
2021/04/24 05:18:12;;;;;;;9.68;6.60;;;5.10;99.90;;;;;;2104716;28;20032;-68
2021/04/24 05:19:13;;;;;;;9.02;6.35;;;5.20;99.90;;;;;;2105512;28;20024;-68
2021/04/24 05:20:15;;;;;;;7.40;5.63;;;5.20;99.90;;;;;;2105285;28;20027;-68
2021/04/24 05:21:16;;;;;;;14.32;6.72;;;5.30;99.90;;;;;;2105459;28;20499;-68
2021/04/24 05:22:17;;;;;;;10.48;6.57;;;5.30;99.90;;;;;;2105052;28;20440;-68